createdAt,value
2017-07-30T00:00:31.223Z,22.50
2017-07-30T00:02:59.496Z,22.50
2017-07-30T00:05:27.761Z,22.50
2017-07-30T00:07:55.237Z,22.40
2017-07-30T00:10:31.116Z,22.40
2017-07-30T00:12:58.611Z,22.40
2017-07-30T00:15:32.448Z,22.40
2017-07-30T00:18:00.712Z,22.30
2017-07-30T00:20:31.478Z,22.30
2017-07-30T00:23:00.977Z,22.30
2017-07-30T00:25:29.233Z,22.20
2017-07-30T00:27:57.089Z,22.20
2017-07-30T00:30:24.696Z,22.20
2017-07-30T00:32:52.199Z,22.20
2017-07-30T00:35:19.695Z,22.20
2017-07-30T00:37:53.402Z,22.20
2017-07-30T00:40:21.692Z,22.10
2017-07-30T00:42:49.182Z,22.00
2017-07-30T00:45:16.998Z,22.10
2017-07-30T00:47:45.282Z,22.00
2017-07-30T00:50:12.849Z,22.00
2017-07-30T00:52:40.383Z,22.00
2017-07-30T00:55:08.630Z,21.90
2017-07-30T00:57:41.907Z,21.90
2017-07-30T01:00:09.430Z,21.90
2017-07-30T01:02:41.714Z,21.70
2017-07-30T01:05:09.197Z,21.70
2017-07-30T01:07:36.684Z,21.70
2017-07-30T01:10:04.305Z,21.70
2017-07-30T01:12:42.388Z,21.60
2017-07-30T01:15:11.074Z,21.60
2017-07-30T01:17:39.350Z,21.50
2017-07-30T01:20:06.843Z,21.40
2017-07-30T01:22:34.384Z,21.40
2017-07-30T01:25:12.187Z,21.30
2017-07-30T01:27:39.686Z,21.30
2017-07-30T01:30:07.422Z,21.20
2017-07-30T01:32:35.260Z,21.20
2017-07-30T01:35:11.313Z,21.20
2017-07-30T01:37:39.903Z,21.30
2017-07-30T01:40:10.956Z,21.20
2017-07-30T01:42:41.790Z,21.30
2017-07-30T01:45:09.334Z,21.30
2017-07-30T01:47:36.829Z,21.20
2017-07-30T01:50:04.370Z,21.20
2017-07-30T01:52:31.851Z,21.10
2017-07-30T01:54:59.387Z,21.10
2017-07-30T01:57:26.942Z,21.00
2017-07-30T01:59:54.794Z,21.00
2017-07-30T02:02:30.560Z,20.90
2017-07-30T02:04:58.428Z,20.80
2017-07-30T02:07:25.924Z,20.80
2017-07-30T02:10:01.254Z,20.80
2017-07-30T02:12:31.693Z,20.80
2017-07-30T02:14:59.211Z,20.80
2017-07-30T02:17:26.709Z,20.70
2017-07-30T02:20:01.167Z,20.70
2017-07-30T02:22:31.004Z,20.60
2017-07-30T02:25:01.494Z,20.60
2017-07-30T02:27:29.243Z,20.60
2017-07-30T02:29:56.722Z,20.60
2017-07-30T02:32:24.321Z,20.50
2017-07-30T02:34:51.875Z,20.50
2017-07-30T02:37:22.372Z,20.50
2017-07-30T02:39:49.962Z,20.50
2017-07-30T02:42:23.261Z,20.60
2017-07-30T02:44:51.019Z,20.60
2017-07-30T02:47:18.513Z,20.80
2017-07-30T02:49:46.001Z,20.90
2017-07-30T02:52:21.316Z,20.90
2017-07-30T02:54:48.797Z,21.00
2017-07-30T02:57:16.390Z,21.10
2017-07-30T02:59:51.135Z,21.10
2017-07-30T03:02:18.992Z,21.00
2017-07-30T03:04:47.272Z,20.90
2017-07-30T03:07:20.976Z,20.80
2017-07-30T03:09:51.510Z,20.70
2017-07-30T03:12:22.340Z,20.60
2017-07-30T03:14:49.823Z,20.50
2017-07-30T03:17:17.367Z,20.50
2017-07-30T03:19:50.650Z,20.50
2017-07-30T03:22:18.203Z,20.50
2017-07-30T03:24:45.732Z,20.50
2017-07-30T03:27:21.231Z,20.40
2017-07-30T03:29:49.086Z,20.40
2017-07-30T03:32:22.443Z,20.40
2017-07-30T03:34:50.235Z,20.40
2017-07-30T03:37:17.731Z,20.40
2017-07-30T03:39:51.546Z,20.40
2017-07-30T03:42:19.069Z,20.40
2017-07-30T03:44:46.557Z,20.40
2017-07-30T03:47:14.060Z,20.50
2017-07-30T03:49:41.546Z,20.60
2017-07-30T03:52:09.315Z,20.60
2017-07-30T03:54:36.798Z,20.60
2017-07-30T03:57:04.327Z,20.50
2017-07-30T03:59:41.714Z,20.50
2017-07-30T04:02:09.271Z,20.60
2017-07-30T04:04:36.836Z,20.60
2017-07-30T04:07:10.639Z,20.60
2017-07-30T04:09:41.779Z,20.60
2017-07-30T04:14:50.118Z,20.60
2017-07-30T04:17:17.600Z,20.70
2017-07-30T04:19:51.886Z,20.80
2017-07-30T04:22:19.383Z,20.80
2017-07-30T04:24:46.875Z,20.80
2017-07-30T04:27:20.620Z,20.80
2017-07-30T04:29:48.159Z,20.80
2017-07-30T04:32:22.819Z,20.90
2017-07-30T04:34:50.368Z,20.80
2017-07-30T04:37:17.949Z,20.90
2017-07-30T04:39:51.264Z,20.90
2017-07-30T04:42:22.351Z,20.90
2017-07-30T04:44:50.627Z,20.90
2017-07-30T04:47:18.189Z,20.90
2017-07-30T04:49:52.001Z,20.90
2017-07-30T04:52:19.499Z,20.90
2017-07-30T04:54:53.359Z,20.90
2017-07-30T04:57:20.921Z,20.90
2017-07-30T04:59:48.678Z,21.00
2017-07-30T05:02:16.967Z,21.10
2017-07-30T05:04:44.544Z,21.00
2017-07-30T05:07:20.376Z,21.20
2017-07-30T05:09:48.627Z,21.40
2017-07-30T05:12:16.427Z,21.40
2017-07-30T05:14:43.983Z,21.50
2017-07-30T05:17:22.076Z,21.50
2017-07-30T05:19:50.358Z,21.60
2017-07-30T05:22:21.403Z,21.50
2017-07-30T05:24:51.990Z,21.60
2017-07-30T05:27:22.521Z,21.60
2017-07-30T05:29:50.028Z,21.70
2017-07-30T05:32:17.534Z,21.80
2017-07-30T05:34:51.178Z,21.90
2017-07-30T05:37:20.671Z,22.00
2017-07-30T05:39:48.166Z,22.00
2017-07-30T05:42:15.698Z,22.10
2017-07-30T05:44:43.283Z,22.20
2017-07-30T05:47:21.064Z,22.20
2017-07-30T05:49:51.784Z,22.20
2017-07-30T05:52:22.853Z,22.30
2017-07-30T05:54:50.346Z,22.40
2017-07-30T05:57:17.857Z,22.50
2017-07-30T05:59:45.359Z,22.60
2017-07-30T06:02:20.681Z,22.60
2017-07-30T06:04:48.204Z,22.70
2017-07-30T06:07:15.706Z,22.80
2017-07-30T06:09:43.537Z,22.90
2017-07-30T06:12:11.039Z,23.00
2017-07-30T06:14:38.534Z,23.00
2017-07-30T06:17:12.250Z,23.10
2017-07-30T06:19:39.748Z,23.20
2017-07-30T06:22:07.242Z,23.30
2017-07-30T06:24:34.729Z,23.40
2017-07-30T06:27:02.476Z,23.50
2017-07-30T06:29:31.581Z,23.50
2017-07-30T06:32:01.077Z,23.70
2017-07-30T06:34:28.665Z,23.70
2017-07-30T06:37:02.147Z,23.80
2017-07-30T06:39:30.955Z,24.00
2017-07-30T06:41:58.471Z,24.00
2017-07-30T06:44:26.283Z,24.10
2017-07-30T06:46:53.776Z,24.10
2017-07-30T06:49:21.284Z,24.20
2017-07-30T06:51:48.798Z,24.30
2017-07-30T06:54:22.060Z,24.40
2017-07-30T06:56:50.901Z,24.40
2017-07-30T06:59:21.324Z,24.50
2017-07-30T07:01:52.105Z,24.60
2017-07-30T07:04:19.659Z,24.70
2017-07-30T07:06:47.152Z,24.80
2017-07-30T07:09:14.655Z,24.80
2017-07-30T07:11:51.788Z,24.90
2017-07-30T07:14:19.287Z,25.00
2017-07-30T07:16:52.942Z,25.10
2017-07-30T07:19:20.715Z,25.10
2017-07-30T07:21:48.213Z,25.20
2017-07-30T07:24:22.072Z,25.30
2017-07-30T07:26:49.563Z,25.30
2017-07-30T07:29:17.061Z,25.40
2017-07-30T07:31:51.210Z,25.50
2017-07-30T07:34:18.704Z,25.60
2017-07-30T07:36:46.515Z,25.70
2017-07-30T07:39:14.011Z,25.70
2017-07-30T07:41:51.865Z,25.70
2017-07-30T07:44:19.372Z,25.80
2017-07-30T07:46:46.868Z,25.90
2017-07-30T07:49:14.465Z,26.00
2017-07-30T07:51:51.932Z,26.10
2017-07-30T07:54:20.550Z,26.20
2017-07-30T07:56:48.038Z,26.20
2017-07-30T07:59:15.531Z,26.30
2017-07-30T08:01:51.309Z,26.30
2017-07-30T08:04:22.041Z,26.30
2017-07-30T08:06:49.807Z,26.40
2017-07-30T08:09:23.096Z,26.50
2017-07-30T08:11:50.930Z,26.50
2017-07-30T08:14:22.442Z,26.60
2017-07-30T08:16:50.764Z,26.60
2017-07-30T08:19:21.983Z,26.70
2017-07-30T08:21:52.977Z,26.70
2017-07-30T08:24:21.166Z,26.70
2017-07-30T08:26:51.881Z,26.70
2017-07-30T08:29:22.544Z,26.80
2017-07-30T08:31:51.118Z,27.00
2017-07-30T08:34:21.754Z,27.10
2017-07-30T08:36:52.277Z,27.20
2017-07-30T08:39:20.119Z,27.40
2017-07-30T08:41:47.610Z,27.40
2017-07-30T08:44:15.139Z,27.40
2017-07-30T08:46:50.579Z,27.40
2017-07-30T08:49:21.523Z,27.40
2017-07-30T08:51:52.164Z,27.20
2017-07-30T08:54:22.692Z,27.20
2017-07-30T08:56:50.426Z,27.30
2017-07-30T08:59:18.959Z,27.60
2017-07-30T09:01:46.468Z,27.60
2017-07-30T09:04:21.012Z,27.70
2017-07-30T09:06:48.524Z,27.70
2017-07-30T09:09:16.023Z,27.80
2017-07-30T09:11:43.516Z,27.90
2017-07-30T09:14:11.017Z,28.00
2017-07-30T09:16:38.507Z,28.20
2017-07-30T09:19:05.988Z,28.30
2017-07-30T09:21:33.779Z,28.20
2017-07-30T09:24:11.738Z,28.10
2017-07-30T09:26:42.990Z,28.10
2017-07-30T09:29:11.225Z,28.10
2017-07-30T09:31:38.806Z,28.30
2017-07-30T09:34:07.400Z,29.00
2017-07-30T09:36:40.874Z,28.90
2017-07-30T09:39:08.656Z,29.10
2017-07-30T09:41:36.144Z,29.00
2017-07-30T09:44:11.143Z,29.30
2017-07-30T09:46:42.687Z,30.50
2017-07-30T09:49:11.115Z,30.40
2017-07-30T09:51:38.587Z,30.90
2017-07-30T09:54:12.439Z,31.00
2017-07-30T09:56:39.997Z,30.90
2017-07-30T09:59:08.279Z,30.10
2017-07-30T10:01:35.785Z,30.10
2017-07-30T10:04:10.356Z,29.70
2017-07-30T10:06:38.950Z,29.10
2017-07-30T10:09:06.454Z,29.00
2017-07-30T10:11:33.952Z,28.80
2017-07-30T10:14:02.226Z,28.20
2017-07-30T10:16:29.798Z,28.10
2017-07-30T10:18:58.403Z,27.90
2017-07-30T10:21:25.914Z,27.80
2017-07-30T10:23:53.421Z,27.90
2017-07-30T10:26:20.988Z,28.00
2017-07-30T10:28:48.538Z,28.10
2017-07-30T10:31:22.386Z,28.20
2017-07-30T10:33:49.907Z,28.60
2017-07-30T10:36:17.551Z,29.50
2017-07-30T10:38:52.210Z,31.90
2017-07-30T10:41:19.700Z,31.90
2017-07-30T10:43:47.184Z,32.20
2017-07-30T10:46:21.763Z,33.00
2017-07-30T10:48:52.564Z,33.00
2017-07-30T10:51:20.420Z,33.40
2017-07-30T10:53:47.902Z,34.00
2017-07-30T10:56:21.469Z,34.20
2017-07-30T10:58:49.769Z,32.90
2017-07-30T11:01:20.911Z,32.80
2017-07-30T11:03:51.383Z,32.00
2017-07-30T11:06:18.869Z,31.30
2017-07-30T11:08:52.700Z,30.70
2017-07-30T11:11:20.198Z,30.30
2017-07-30T11:13:47.695Z,29.90
2017-07-30T11:16:15.197Z,29.60
2017-07-30T11:18:50.681Z,29.20
2017-07-30T11:21:18.490Z,28.80
2017-07-30T11:23:45.988Z,28.50
2017-07-30T11:26:20.981Z,28.20
2017-07-30T11:28:48.472Z,28.00
2017-07-30T11:31:21.999Z,27.90
2017-07-30T11:33:52.590Z,27.80
2017-07-30T11:36:20.086Z,27.60
2017-07-30T11:38:50.900Z,27.50
2017-07-30T11:41:18.383Z,27.20
2017-07-30T11:43:51.853Z,26.90
2017-07-30T11:46:22.586Z,26.60
2017-07-30T11:48:51.548Z,26.50
2017-07-30T11:51:19.065Z,26.40
2017-07-30T11:53:46.556Z,26.20
2017-07-30T11:56:14.062Z,26.20
2017-07-30T11:58:41.559Z,26.20
2017-07-30T12:01:10.165Z,26.40
2017-07-30T12:03:40.990Z,26.30
2017-07-30T12:06:11.734Z,26.50
2017-07-30T12:08:40.968Z,26.70
2017-07-30T12:11:08.446Z,26.70
2017-07-30T12:13:35.940Z,26.80
2017-07-30T12:16:10.591Z,27.00
2017-07-30T12:18:41.724Z,27.10
2017-07-30T12:21:09.225Z,27.30
2017-07-30T12:23:42.855Z,27.80
2017-07-30T12:26:21.222Z,29.90
2017-07-30T12:28:48.992Z,29.80
2017-07-30T12:31:16.495Z,30.70
2017-07-30T12:33:51.170Z,30.90
2017-07-30T12:36:21.676Z,31.20
2017-07-30T12:38:52.607Z,31.90
2017-07-30T12:41:20.077Z,32.30
2017-07-30T12:43:51.450Z,32.20
2017-07-30T12:46:22.069Z,32.00
2017-07-30T12:48:49.568Z,31.80
2017-07-30T12:51:23.057Z,31.40
2017-07-30T12:53:50.549Z,31.00
2017-07-30T12:56:19.085Z,31.00
2017-07-30T12:58:46.570Z,30.90
2017-07-30T13:01:14.058Z,31.10
2017-07-30T13:03:51.512Z,30.90
2017-07-30T13:06:19.013Z,30.60
2017-07-30T13:08:46.514Z,30.30
2017-07-30T13:11:14.006Z,30.10
2017-07-30T13:13:50.585Z,29.70
2017-07-30T13:16:21.835Z,29.60
2017-07-30T13:18:51.123Z,29.30
2017-07-30T13:21:19.384Z,28.40
2017-07-30T13:23:46.882Z,28.30
2017-07-30T13:26:14.384Z,28.20
2017-07-30T13:28:52.603Z,28.00
2017-07-30T13:31:20.086Z,28.00
2017-07-30T13:33:53.640Z,27.90
2017-07-30T13:36:21.137Z,27.70
2017-07-30T13:38:49.395Z,27.40
2017-07-30T13:41:17.203Z,27.40
2017-07-30T13:43:44.696Z,27.40
2017-07-30T13:46:12.203Z,27.30
2017-07-30T13:48:41.827Z,27.20
2017-07-30T13:51:11.041Z,27.20
2017-07-30T13:53:41.968Z,27.10
2017-07-30T13:56:11.275Z,27.00
2017-07-30T13:58:38.764Z,26.80
2017-07-30T14:01:06.520Z,26.70
2017-07-30T14:03:34.022Z,26.70
2017-07-30T14:06:01.517Z,26.60
2017-07-30T14:08:32.863Z,26.50
2017-07-30T14:11:00.351Z,26.50
2017-07-30T14:13:30.854Z,26.40
2017-07-30T14:16:01.899Z,26.40
2017-07-30T14:18:29.392Z,26.30
2017-07-30T14:20:56.888Z,26.20
2017-07-30T14:23:31.820Z,26.10
2017-07-30T14:26:00.103Z,26.10
2017-07-30T14:28:28.355Z,26.20
2017-07-30T14:30:55.857Z,26.10
2017-07-30T14:33:31.187Z,26.20
2017-07-30T14:35:58.687Z,26.20
2017-07-30T14:38:32.400Z,26.20
2017-07-30T14:41:01.404Z,26.30
2017-07-30T14:43:32.517Z,26.40
2017-07-30T14:46:01.130Z,26.60
2017-07-30T14:48:28.650Z,26.90
2017-07-30T14:51:02.126Z,27.20
2017-07-30T14:53:31.126Z,27.50
2017-07-30T14:56:01.888Z,27.80
2017-07-30T14:58:32.700Z,28.10
2017-07-30T15:01:00.898Z,28.40
2017-07-30T15:03:28.428Z,28.80
2017-07-30T15:06:01.951Z,29.20
2017-07-30T15:08:30.886Z,29.50
2017-07-30T15:10:58.391Z,29.70
2017-07-30T15:13:25.892Z,29.40
2017-07-30T15:16:00.772Z,29.10
2017-07-30T15:18:28.354Z,28.90
2017-07-30T15:21:01.978Z,28.70
2017-07-30T15:23:29.502Z,28.60
2017-07-30T15:25:57.039Z,28.50
2017-07-30T15:28:24.818Z,28.50
2017-07-30T15:31:02.304Z,28.50
2017-07-30T15:33:31.463Z,28.40
2017-07-30T15:35:58.977Z,28.40
2017-07-30T15:38:32.550Z,28.50
2017-07-30T15:41:00.803Z,28.30
2017-07-30T15:43:28.296Z,28.30
2017-07-30T15:45:55.796Z,28.30
2017-07-30T15:48:31.127Z,28.30
2017-07-30T15:50:58.645Z,28.40
2017-07-30T15:53:32.329Z,28.40
2017-07-30T15:56:00.127Z,28.40
2017-07-30T15:58:30.833Z,28.40
2017-07-30T16:00:58.330Z,28.50
2017-07-30T16:03:25.820Z,28.40
2017-07-30T16:05:53.310Z,28.40
2017-07-30T16:08:31.758Z,28.30
2017-07-30T16:10:59.238Z,28.20
2017-07-30T16:13:26.715Z,28.20
2017-07-30T16:15:54.222Z,28.20
2017-07-30T16:18:32.151Z,28.20
2017-07-30T16:21:00.015Z,28.10
2017-07-30T16:23:27.491Z,28.10
2017-07-30T16:26:01.668Z,28.10
2017-07-30T16:28:32.339Z,28.10
2017-07-30T16:31:00.824Z,28.10
2017-07-30T16:33:28.339Z,28.10
2017-07-30T16:36:01.722Z,28.20
2017-07-30T16:38:32.980Z,28.20
2017-07-30T16:41:01.318Z,28.20
2017-07-30T16:43:31.822Z,28.20
2017-07-30T16:46:02.489Z,28.20
2017-07-30T16:48:29.978Z,28.20
2017-07-30T16:50:57.478Z,28.20
2017-07-30T16:53:24.978Z,28.30
2017-07-30T16:55:52.888Z,28.20
2017-07-30T16:58:20.694Z,28.20
2017-07-30T17:00:51.313Z,28.20
2017-07-30T17:03:22.207Z,28.20
2017-07-30T17:05:51.457Z,28.10
2017-07-30T17:08:18.987Z,28.10
2017-07-30T17:10:46.488Z,28.20
2017-07-30T17:13:21.140Z,28.10
2017-07-30T17:15:49.010Z,28.10
2017-07-30T17:18:22.343Z,28.10
2017-07-30T17:20:49.844Z,28.10
2017-07-30T17:23:18.106Z,28.00
2017-07-30T17:25:45.589Z,27.90
2017-07-30T17:28:13.123Z,28.00
2017-07-30T17:30:40.626Z,28.00
2017-07-30T17:33:08.504Z,27.90
2017-07-30T17:35:36.010Z,27.80
2017-07-30T17:38:11.385Z,27.80
2017-07-30T17:40:38.885Z,27.60
2017-07-30T17:43:12.546Z,27.60
2017-07-30T17:45:40.046Z,27.50
2017-07-30T17:48:10.775Z,27.50
2017-07-30T17:50:41.778Z,27.50
2017-07-30T17:53:10.911Z,27.50
2017-07-30T17:55:38.416Z,27.50
2017-07-30T17:58:11.679Z,27.50
2017-07-30T18:00:42.542Z,27.50
2017-07-30T18:03:11.296Z,27.50
2017-07-30T18:05:42.656Z,27.40
2017-07-30T18:08:10.144Z,27.20
2017-07-30T18:10:37.919Z,27.10
2017-07-30T18:13:05.411Z,27.00
2017-07-30T18:15:32.900Z,26.90
2017-07-30T18:18:01.832Z,26.80
2017-07-30T18:20:31.101Z,26.70
2017-07-30T18:23:01.979Z,26.60
2017-07-30T18:25:31.094Z,26.50
2017-07-30T18:28:02.012Z,26.30
2017-07-30T18:30:31.139Z,26.20
2017-07-30T18:33:02.032Z,26.10
2017-07-30T18:35:31.252Z,26.00
2017-07-30T18:37:58.746Z,25.90
2017-07-30T18:40:32.078Z,25.80
2017-07-30T18:43:00.352Z,25.60
2017-07-30T18:45:27.843Z,25.60
2017-07-30T18:48:01.940Z,25.60
2017-07-30T18:50:29.817Z,25.50
2017-07-30T18:53:03.079Z,25.40
2017-07-30T18:55:30.880Z,25.30
2017-07-30T18:58:01.466Z,25.30
2017-07-30T19:00:32.356Z,25.30
2017-07-30T19:03:00.865Z,25.20
2017-07-30T19:05:28.359Z,25.20
2017-07-30T19:08:01.688Z,25.10
2017-07-30T19:10:29.999Z,25.00
2017-07-30T19:13:01.161Z,25.00
2017-07-30T19:15:31.690Z,24.90
2017-07-30T19:18:02.629Z,24.80
2017-07-30T19:20:30.916Z,24.80
2017-07-30T19:22:58.413Z,24.70
2017-07-30T19:25:31.942Z,24.70
2017-07-30T19:27:59.451Z,24.70
2017-07-30T19:30:27.328Z,24.60
2017-07-30T19:32:54.825Z,24.50
2017-07-30T19:35:22.318Z,24.40
2017-07-30T19:37:50.929Z,24.20
2017-07-30T19:40:21.905Z,24.20
2017-07-30T19:42:49.395Z,24.10
2017-07-30T19:45:16.904Z,23.90
2017-07-30T19:47:44.400Z,23.80
2017-07-30T19:50:12.207Z,23.80
2017-07-30T19:52:40.725Z,23.70
2017-07-30T19:55:11.263Z,23.70
2017-07-30T19:57:41.773Z,23.60
2017-07-30T20:00:09.267Z,23.50
2017-07-30T20:02:37.043Z,23.50
2017-07-30T20:05:04.538Z,23.40
2017-07-30T20:07:32.031Z,23.30
2017-07-30T20:10:00.965Z,23.30
2017-07-30T20:12:32.264Z,23.20
2017-07-30T20:14:59.747Z,23.20
2017-07-30T20:17:33.279Z,23.20
2017-07-30T20:20:10.895Z,23.10
2017-07-30T20:22:38.740Z,23.10
2017-07-30T20:25:12.095Z,23.10
2017-07-30T20:27:39.913Z,23.10
2017-07-30T20:30:13.229Z,23.10
2017-07-30T20:32:41.281Z,23.10
2017-07-30T20:35:08.775Z,23.10
2017-07-30T20:37:42.192Z,23.10
2017-07-30T20:40:10.714Z,23.00
2017-07-30T20:42:41.136Z,23.00
2017-07-30T20:45:08.884Z,23.00
2017-07-30T20:47:43.071Z,23.00
2017-07-30T20:50:11.146Z,22.90
2017-07-30T20:52:38.643Z,23.00
2017-07-30T20:55:12.918Z,22.90
2017-07-30T20:57:40.403Z,22.80
2017-07-30T21:00:07.883Z,22.70
2017-07-30T21:02:35.392Z,22.70
2017-07-30T21:05:11.237Z,22.60
2017-07-30T21:07:39.055Z,22.60
2017-07-30T21:10:12.325Z,22.60
2017-07-30T21:12:40.114Z,22.50
2017-07-30T21:15:10.715Z,22.50
2017-07-30T21:17:41.697Z,22.50
2017-07-30T21:20:10.705Z,22.50
2017-07-30T21:22:38.204Z,22.50
2017-07-30T21:25:05.708Z,22.60
2017-07-30T21:27:33.212Z,22.60
2017-07-30T21:30:00.715Z,22.60
2017-07-30T21:32:28.199Z,22.60
2017-07-30T21:34:56.040Z,22.60
2017-07-30T21:37:31.311Z,22.60
2017-07-30T21:40:02.531Z,22.60
2017-07-30T21:42:31.679Z,22.60
2017-07-30T21:45:02.772Z,22.60
2017-07-30T21:47:30.273Z,22.60
2017-07-30T21:50:01.530Z,22.50
2017-07-30T21:52:29.055Z,22.50
2017-07-30T21:55:02.314Z,22.50
2017-07-30T21:57:31.418Z,22.50
2017-07-30T22:00:02.662Z,22.40
2017-07-30T22:02:30.158Z,22.50
2017-07-30T22:04:57.916Z,22.40
2017-07-30T22:07:25.403Z,22.50
2017-07-30T22:09:52.893Z,22.40
2017-07-30T22:12:20.997Z,22.40
2017-07-30T22:14:52.284Z,22.40
2017-07-30T22:17:19.770Z,22.40
2017-07-30T22:19:48.043Z,22.40
2017-07-30T22:22:21.756Z,22.40
2017-07-30T22:24:50.343Z,22.40
2017-07-30T22:27:17.867Z,22.40
2017-07-30T22:29:45.359Z,22.40
2017-07-30T22:32:12.877Z,22.40
2017-07-30T22:34:40.763Z,22.30
2017-07-30T22:37:08.261Z,22.30
2017-07-30T22:39:41.535Z,22.30
2017-07-30T22:42:09.406Z,22.20
2017-07-30T22:44:42.896Z,22.20
2017-07-30T22:47:10.663Z,22.10
2017-07-30T22:49:38.152Z,22.00
2017-07-30T22:52:05.640Z,22.00
2017-07-30T22:54:33.463Z,22.00
2017-07-30T22:57:00.950Z,22.00
2017-07-30T22:59:32.098Z,22.00
2017-07-30T23:01:59.605Z,21.90
2017-07-30T23:04:27.111Z,21.90
2017-07-30T23:06:54.919Z,21.90
2017-07-30T23:12:20.579Z,21.90
2017-07-30T23:14:48.056Z,21.90
2017-07-30T23:17:15.905Z,21.90
2017-07-30T23:19:51.219Z,21.90
2017-07-30T23:22:19.841Z,22.00
2017-07-30T23:24:47.344Z,21.90
2017-07-30T23:27:21.380Z,21.90
2017-07-30T23:29:49.628Z,22.00
2017-07-30T23:32:17.112Z,21.90
2017-07-30T23:34:50.769Z,21.90
2017-07-30T23:37:18.262Z,21.90
2017-07-30T23:39:51.862Z,21.80
2017-07-30T23:42:20.678Z,21.80
2017-07-30T23:44:51.516Z,21.80
2017-07-30T23:47:20.716Z,21.70
2017-07-30T23:49:48.965Z,21.60
2017-07-30T23:52:22.487Z,21.60
2017-07-30T23:54:50.336Z,21.60
2017-07-30T23:57:20.776Z,21.60
2017-07-30T23:59:48.273Z,21.60
